createdAt,value
2023-01-13T00:00:27.681Z,1.38
2023-01-13T00:02:56.375Z,1.50
2023-01-13T00:05:25.747Z,1.55
2023-01-13T00:07:53.580Z,1.40
2023-01-13T00:10:22.598Z,1.33
2023-01-13T00:12:50.264Z,1.60
2023-01-13T00:15:17.957Z,1.45
2023-01-13T00:17:45.564Z,1.23
2023-01-13T00:20:13.740Z,1.42
2023-01-13T00:22:41.483Z,1.35
2023-01-13T00:25:09.818Z,1.65
2023-01-13T00:27:38.854Z,1.35
2023-01-13T00:30:10.488Z,1.30
2023-01-13T00:32:38.146Z,1.23
2023-01-13T00:35:06.861Z,1.35
2023-01-13T00:37:36.921Z,1.17
2023-01-13T00:40:05.471Z,1.20
2023-01-13T00:42:50.849Z,1.35
2023-01-13T00:45:19.963Z,1.25
2023-01-13T00:47:47.626Z,1.50
2023-01-13T00:50:15.404Z,1.55
2023-01-13T00:52:43.083Z,1.65
2023-01-13T00:55:10.796Z,1.67
2023-01-13T00:57:39.474Z,1.48
2023-01-13T01:00:08.179Z,2.00
2023-01-13T01:02:37.218Z,1.63
2023-01-13T01:05:05.264Z,1.80
2023-01-13T01:07:35.943Z,1.52
2023-01-13T01:10:04.230Z,2.00
2023-01-13T01:12:31.921Z,1.70
2023-01-13T01:14:59.590Z,2.05
2023-01-13T01:17:27.278Z,1.70
2023-01-13T01:19:56.290Z,1.70
2023-01-13T01:22:23.940Z,1.98
2023-01-13T01:24:51.611Z,1.65
2023-01-13T01:27:19.218Z,1.58
2023-01-13T01:29:46.855Z,1.70
2023-01-13T01:32:14.473Z,2.03
2023-01-13T01:34:42.114Z,2.00
2023-01-13T01:37:11.091Z,2.15
2023-01-13T01:39:38.713Z,2.10
2023-01-13T01:42:23.999Z,1.95
2023-01-13T01:44:59.556Z,1.75
2023-01-13T01:47:28.967Z,2.40
2023-01-13T01:49:58.699Z,2.00
2023-01-13T01:52:32.921Z,1.60
2023-01-13T01:55:04.258Z,1.98
2023-01-13T01:57:40.490Z,2.13
2023-01-13T02:00:10.389Z,2.40
2023-01-13T02:02:38.943Z,2.28
2023-01-13T02:05:07.691Z,2.30
2023-01-13T02:11:48.596Z,2.00
2023-01-13T02:14:16.558Z,2.10
2023-01-13T02:16:52.017Z,1.70
2023-01-13T02:19:37.368Z,1.88
2023-01-13T02:22:33.670Z,2.08
2023-01-13T02:25:29.097Z,1.85
2023-01-13T02:28:21.302Z,1.90
2023-01-13T02:31:12.360Z,2.20
2023-01-13T02:33:57.739Z,1.70
2023-01-13T02:36:34.441Z,2.40
2023-01-13T02:39:06.733Z,1.48
2023-01-13T02:41:58.131Z,1.50
2023-01-13T02:44:29.690Z,1.73
2023-01-13T02:47:05.023Z,2.15
2023-01-13T02:52:09.746Z,2.25
2023-01-13T02:54:40.318Z,1.93
2023-01-13T02:57:11.109Z,1.77
2023-01-13T02:59:41.552Z,1.60
2023-01-13T03:02:14.913Z,1.90
2023-01-13T03:04:56.934Z,1.80
2023-01-13T03:07:55.574Z,2.00
2023-01-13T03:10:47.394Z,1.70
2023-01-13T03:13:34.347Z,1.90
2023-01-13T03:16:11.001Z,1.80
2023-01-13T03:18:48.317Z,2.65
2023-01-13T03:21:21.800Z,2.15
2023-01-13T03:23:52.724Z,2.08
2023-01-13T03:26:31.239Z,1.95
2023-01-13T03:29:07.177Z,1.83
2023-01-13T03:31:37.670Z,2.03
2023-01-13T03:34:12.490Z,2.20
2023-01-13T03:36:42.613Z,1.95
2023-01-13T03:39:14.703Z,1.90
2023-01-13T03:41:47.525Z,2.38
2023-01-13T03:44:22.749Z,2.10
2023-01-13T03:46:59.397Z,2.42
2023-01-13T03:49:33.071Z,2.20
2023-01-13T03:52:05.244Z,2.08
2023-01-13T03:54:37.317Z,1.80
2023-01-13T03:57:13.074Z,2.42
2023-01-13T03:59:45.282Z,2.05
2023-01-13T04:02:19.210Z,1.80
2023-01-13T04:04:53.035Z,1.75
2023-01-13T04:07:31.747Z,2.10
2023-01-13T04:10:03.634Z,1.70
2023-01-13T04:12:53.054Z,1.90
2023-01-13T04:15:24.062Z,1.90
2023-01-13T04:17:51.883Z,2.35
2023-01-13T04:20:21.731Z,2.03
2023-01-13T04:22:49.219Z,2.47
2023-01-13T04:25:16.767Z,1.85
2023-01-13T04:27:44.665Z,1.85
2023-01-13T04:30:12.993Z,1.90
2023-01-13T04:32:40.438Z,1.83
2023-01-13T04:35:08.509Z,2.28
2023-01-13T04:37:37.430Z,2.28
2023-01-13T04:40:06.162Z,2.20
2023-01-13T04:42:33.648Z,2.40
2023-01-13T04:45:01.112Z,2.42
2023-01-13T04:47:28.594Z,1.83
2023-01-13T04:49:56.082Z,2.85
2023-01-13T04:52:23.719Z,2.40
2023-01-13T04:54:52.559Z,2.80
2023-01-13T04:57:20.033Z,2.47
2023-01-13T04:59:47.527Z,2.38
2023-01-13T05:02:19.744Z,2.47
2023-01-13T05:04:47.674Z,2.38
2023-01-13T05:07:16.565Z,2.80
2023-01-13T05:09:44.015Z,2.30
2023-01-13T05:12:30.720Z,2.60
2023-01-13T05:15:16.045Z,2.75
2023-01-13T05:17:44.092Z,2.50
2023-01-13T05:20:12.906Z,2.60
2023-01-13T05:22:58.470Z,2.08
2023-01-13T05:25:27.275Z,2.67
2023-01-13T05:27:58.145Z,3.20
2023-01-13T05:30:27.482Z,2.97
2023-01-13T05:32:55.498Z,2.70
2023-01-13T05:35:23.416Z,3.45
2023-01-13T05:37:51.269Z,2.42
2023-01-13T05:40:37.773Z,2.80
2023-01-13T05:43:24.352Z,1.83
2023-01-13T05:45:56.874Z,2.08
2023-01-13T05:48:26.068Z,2.42
2023-01-13T05:50:53.859Z,2.60
2023-01-13T05:53:22.897Z,1.98
2023-01-13T05:55:50.790Z,2.72
2023-01-13T05:58:21.765Z,2.63
2023-01-13T06:00:50.034Z,2.25
2023-01-13T06:03:19.914Z,3.05
2023-01-13T06:05:48.260Z,2.15
2023-01-13T06:08:16.101Z,2.50
2023-01-13T06:10:43.593Z,2.42
2023-01-13T06:13:11.167Z,2.30
2023-01-13T06:15:39.972Z,3.00
2023-01-13T06:18:07.566Z,2.90
2023-01-13T06:20:35.297Z,2.72
2023-01-13T06:23:03.018Z,2.50
2023-01-13T06:25:38.727Z,2.05
2023-01-13T06:28:06.235Z,2.47
2023-01-13T06:30:39.533Z,2.47
2023-01-13T06:33:13.156Z,2.63
2023-01-13T06:35:45.226Z,3.05
2023-01-13T06:38:16.823Z,3.08
2023-01-13T06:40:44.554Z,2.53
2023-01-13T06:43:17.579Z,2.70
2023-01-13T06:45:50.167Z,2.47
2023-01-13T06:48:20.922Z,2.42
2023-01-13T06:50:48.426Z,2.80
2023-01-13T06:53:15.941Z,2.15
2023-01-13T06:55:43.449Z,2.50
2023-01-13T06:58:11.001Z,2.92
2023-01-13T07:00:38.585Z,2.58
2023-01-13T07:03:11.325Z,2.45
2023-01-13T07:05:41.136Z,2.90
2023-01-13T07:08:09.326Z,2.42
2023-01-13T07:10:37.961Z,2.13
2023-01-13T07:13:24.964Z,2.20
2023-01-13T07:15:57.300Z,2.75
2023-01-13T07:18:27.168Z,2.67
2023-01-13T07:20:58.160Z,3.17
2023-01-13T07:23:26.507Z,3.15
2023-01-13T07:25:55.994Z,2.80
2023-01-13T07:28:23.613Z,2.67
2023-01-13T07:30:51.194Z,2.42
2023-01-13T07:33:19.018Z,2.00
2023-01-13T07:35:46.961Z,2.33
2023-01-13T07:38:16.008Z,2.03
2023-01-13T07:40:43.515Z,2.38
2023-01-13T07:43:30.671Z,1.90
2023-01-13T07:45:59.415Z,2.63
2023-01-13T07:48:27.495Z,2.00
2023-01-13T07:50:55.102Z,2.65
2023-01-13T07:53:25.865Z,2.30
2023-01-13T07:55:56.666Z,2.30
2023-01-13T07:58:24.541Z,2.47
2023-01-13T08:00:52.268Z,2.42
2023-01-13T08:03:19.899Z,2.78
2023-01-13T08:05:47.443Z,2.63
2023-01-13T08:08:14.915Z,2.10
2023-01-13T08:10:44.888Z,2.60
2023-01-13T08:13:19.906Z,2.65
2023-01-13T08:15:49.891Z,2.15
2023-01-13T08:18:20.716Z,2.42
2023-01-13T08:20:49.467Z,3.05
2023-01-13T08:23:17.463Z,1.92
2023-01-13T08:25:46.452Z,2.22
2023-01-13T08:28:14.898Z,2.05
2023-01-13T08:30:43.065Z,2.38
2023-01-13T08:33:12.490Z,2.20
2023-01-13T08:35:41.176Z,2.47
2023-01-13T08:38:09.032Z,3.22
2023-01-13T08:40:36.733Z,2.67
2023-01-13T08:43:05.563Z,2.40
2023-01-13T08:45:33.129Z,2.72
2023-01-13T08:48:00.724Z,2.22
2023-01-13T08:50:28.218Z,2.35
2023-01-13T08:52:56.020Z,2.42
2023-01-13T08:55:23.924Z,2.55
2023-01-13T08:57:52.117Z,2.13
2023-01-13T09:00:22.287Z,2.25
2023-01-13T09:02:49.797Z,2.47
2023-01-13T09:05:17.936Z,2.47
2023-01-13T09:07:45.490Z,2.03
2023-01-13T09:10:12.964Z,2.40
2023-01-13T09:12:57.963Z,2.53
2023-01-13T09:15:26.842Z,2.28
2023-01-13T09:17:54.376Z,2.60
2023-01-13T09:20:22.013Z,3.00
2023-01-13T09:22:49.508Z,2.95
2023-01-13T09:25:17.049Z,2.40
2023-01-13T09:27:44.538Z,3.10
2023-01-13T09:30:12.787Z,2.83
2023-01-13T09:32:41.603Z,2.72
2023-01-13T09:35:08.929Z,2.72
2023-01-13T09:37:38.392Z,2.38
2023-01-13T09:40:08.472Z,3.50
2023-01-13T09:43:02.239Z,3.30
2023-01-13T09:45:34.485Z,2.70
2023-01-13T09:48:09.665Z,2.72
2023-01-13T09:50:55.021Z,3.00
2023-01-13T09:53:26.573Z,3.00
2023-01-13T09:55:54.260Z,3.28
2023-01-13T09:58:22.082Z,3.10
2023-01-13T10:01:01.211Z,2.55
2023-01-13T10:03:31.947Z,2.83
2023-01-13T10:06:04.611Z,3.28
2023-01-13T10:08:35.381Z,3.53
2023-01-13T10:11:29.469Z,3.00
2023-01-13T10:13:59.519Z,4.40
2023-01-13T10:16:42.207Z,2.92
2023-01-13T10:19:18.822Z,3.35
2023-01-13T10:22:09.179Z,3.78
2023-01-13T10:24:55.745Z,3.30
2023-01-13T10:27:30.164Z,3.05
2023-01-13T10:29:57.983Z,3.60
2023-01-13T10:32:25.492Z,2.80
2023-01-13T10:34:57.039Z,2.72
2023-01-13T10:37:27.523Z,2.60
2023-01-13T10:39:56.835Z,2.88
2023-01-13T10:42:32.240Z,3.40
2023-01-13T10:45:01.496Z,3.30
2023-01-13T10:47:31.331Z,3.38
2023-01-13T10:50:29.474Z,3.47
2023-01-13T10:53:01.690Z,3.45
2023-01-13T10:55:32.021Z,3.63
2023-01-13T10:58:12.969Z,2.72
2023-01-13T11:00:43.580Z,3.17
2023-01-13T11:03:17.738Z,3.45
2023-01-13T11:05:53.158Z,3.20
2023-01-13T11:08:24.094Z,2.88
2023-01-13T11:10:53.977Z,3.17
2023-01-13T11:13:31.544Z,3.38
2023-01-13T11:16:05.537Z,3.20
2023-01-13T11:18:43.542Z,2.63
2023-01-13T11:21:22.236Z,4.32
2023-01-13T11:24:07.595Z,3.60
2023-01-13T11:26:44.506Z,3.13
2023-01-13T11:29:19.337Z,3.95
2023-01-13T11:31:51.641Z,3.10
2023-01-13T11:34:29.252Z,3.58
2023-01-13T11:37:00.046Z,3.17
2023-01-13T11:39:40.299Z,3.38
2023-01-13T11:42:24.395Z,3.60
2023-01-13T11:45:03.513Z,4.47
2023-01-13T11:47:32.525Z,3.00
2023-01-13T11:50:01.127Z,3.78
2023-01-13T11:52:42.941Z,3.40
2023-01-13T11:55:31.577Z,2.92
2023-01-13T11:58:21.214Z,3.88
2023-01-13T12:01:14.443Z,2.83
2023-01-13T12:03:47.110Z,3.20
2023-01-13T12:06:25.901Z,3.83
2023-01-13T12:09:23.988Z,2.88
2023-01-13T12:12:24.938Z,3.47
2023-01-13T12:15:06.371Z,2.80
2023-01-13T12:17:40.526Z,3.25
2023-01-13T12:20:23.793Z,3.28
2023-01-13T12:22:56.818Z,2.88
2023-01-13T12:25:34.466Z,3.90
2023-01-13T12:28:07.888Z,3.08
2023-01-13T12:30:41.848Z,3.65
2023-01-13T12:33:21.173Z,3.47
2023-01-13T12:36:00.102Z,2.50
2023-01-13T12:38:36.357Z,3.22
2023-01-13T12:41:15.631Z,3.30
2023-01-13T12:44:06.428Z,2.55
2023-01-13T12:46:53.101Z,2.90
2023-01-13T12:49:25.991Z,2.72
2023-01-13T12:52:12.624Z,2.70
2023-01-13T12:55:03.887Z,2.20
2023-01-13T12:57:34.442Z,2.50
2023-01-13T13:00:17.606Z,1.90
2023-01-13T13:03:29.294Z,2.15
2023-01-13T13:06:08.846Z,2.00
2023-01-13T13:08:47.274Z,2.72
2023-01-13T13:11:57.174Z,2.05
2023-01-13T13:15:03.786Z,2.00
2023-01-13T13:17:45.929Z,1.90
2023-01-13T13:20:54.728Z,2.00
2023-01-13T13:23:47.781Z,2.50
2023-01-13T13:26:40.024Z,2.10
2023-01-13T13:29:50.759Z,2.10
2023-01-13T13:32:33.914Z,2.10
2023-01-13T13:35:18.453Z,2.35
2023-01-13T13:38:17.346Z,2.80
2023-01-13T13:41:05.763Z,2.65
2023-01-13T13:43:58.847Z,2.72
2023-01-13T13:46:47.892Z,2.83
2023-01-13T13:49:16.816Z,2.75
2023-01-13T13:51:49.991Z,2.63
2023-01-13T13:54:20.898Z,3.13
2023-01-13T13:56:51.475Z,3.08
2023-01-13T13:59:22.375Z,3.17
2023-01-13T14:02:00.512Z,3.90
2023-01-13T14:04:30.947Z,3.28
2023-01-13T14:07:00.125Z,3.42
2023-01-13T14:09:29.946Z,3.10
2023-01-13T14:12:01.067Z,2.90
2023-01-13T14:14:29.071Z,3.28
2023-01-13T14:16:57.214Z,3.90
2023-01-13T14:19:32.358Z,3.08
2023-01-13T14:22:02.026Z,3.03
2023-01-13T14:24:32.212Z,3.78
2023-01-13T14:27:11.850Z,2.97
2023-01-13T14:29:39.549Z,3.70
2023-01-13T14:32:08.411Z,3.08
2023-01-13T14:34:49.366Z,3.22
2023-01-13T14:37:26.333Z,3.25
2023-01-13T14:39:53.860Z,2.80
2023-01-13T14:42:22.784Z,3.72
2023-01-13T14:44:51.863Z,2.85
2023-01-13T14:47:26.632Z,3.05
2023-01-13T14:50:00.377Z,2.85
2023-01-13T14:52:30.303Z,3.50
2023-01-13T14:55:23.603Z,3.53
2023-01-13T14:57:52.878Z,2.88
2023-01-13T15:00:23.510Z,3.35
2023-01-13T15:03:02.343Z,4.10
2023-01-13T15:05:47.118Z,2.95
2023-01-13T15:08:36.182Z,2.70
2023-01-13T15:11:05.757Z,3.50
2023-01-13T15:13:40.972Z,3.13
2023-01-13T15:16:17.348Z,3.35
2023-01-13T15:18:45.281Z,3.58
2023-01-13T15:21:13.328Z,4.38
2023-01-13T15:23:41.198Z,3.63
2023-01-13T15:26:19.526Z,3.88
2023-01-13T15:28:48.856Z,3.70
2023-01-13T15:31:16.661Z,3.53
2023-01-13T15:33:44.374Z,3.47
2023-01-13T15:36:21.696Z,3.28
2023-01-13T15:38:49.385Z,3.40
2023-01-13T15:41:17.096Z,3.65
2023-01-13T15:44:02.255Z,3.65
2023-01-13T15:46:40.260Z,2.97
2023-01-13T15:49:15.340Z,3.97
2023-01-13T15:51:44.411Z,3.13
2023-01-13T15:54:12.626Z,2.88
2023-01-13T15:56:41.946Z,2.85
2023-01-13T15:59:17.511Z,3.83
2023-01-13T16:01:46.844Z,3.22
2023-01-13T16:04:14.418Z,3.47
2023-01-13T16:06:42.374Z,3.25
2023-01-13T16:09:13.433Z,3.20
2023-01-13T16:11:40.946Z,3.35
2023-01-13T16:14:08.444Z,2.67
2023-01-13T16:16:37.194Z,3.20
2023-01-13T16:19:06.149Z,3.08
2023-01-13T16:21:33.746Z,3.22
2023-01-13T16:24:01.217Z,3.30
2023-01-13T16:26:30.228Z,3.42
2023-01-13T16:28:58.922Z,3.13
2023-01-13T16:31:31.831Z,3.65
2023-01-13T16:34:00.389Z,3.72
2023-01-13T16:36:30.501Z,3.15
2023-01-13T16:38:58.059Z,3.47
2023-01-13T16:41:25.838Z,3.20
2023-01-13T16:43:53.809Z,2.78
2023-01-13T16:46:24.422Z,3.60
2023-01-13T16:48:53.883Z,2.75
2023-01-13T16:51:22.298Z,3.80
2023-01-13T16:53:51.810Z,3.70
2023-01-13T16:56:24.957Z,4.07
2023-01-13T16:58:54.216Z,4.13
2023-01-13T17:01:25.039Z,3.72
2023-01-13T17:03:53.451Z,3.28
2023-01-13T17:06:24.704Z,3.10
2023-01-13T17:08:54.138Z,3.78
2023-01-13T17:11:21.963Z,3.03
2023-01-13T17:13:49.519Z,3.15
2023-01-13T17:16:19.942Z,4.30
2023-01-13T17:18:48.274Z,3.40
2023-01-13T17:21:16.223Z,3.42
2023-01-13T17:23:43.834Z,3.92
2023-01-13T17:26:28.370Z,3.40
2023-01-13T17:28:56.184Z,3.63
2023-01-13T17:31:26.000Z,3.30
2023-01-13T17:33:53.538Z,3.70
2023-01-13T17:36:21.033Z,3.13
2023-01-13T17:38:48.593Z,2.88
2023-01-13T17:41:17.410Z,3.67
2023-01-13T17:43:44.915Z,3.35
2023-01-13T17:46:13.771Z,3.58
2023-01-13T17:48:41.224Z,3.28
2023-01-13T17:51:12.889Z,3.45
2023-01-13T17:53:41.270Z,3.33
2023-01-13T17:56:10.272Z,2.88
2023-01-13T17:58:41.336Z,3.20
2023-01-13T18:01:10.054Z,3.03
2023-01-13T18:03:38.539Z,3.88
2023-01-13T18:06:07.818Z,3.85
2023-01-13T18:08:35.460Z,3.15
2023-01-13T18:11:03.279Z,3.28
2023-01-13T18:13:31.070Z,2.95
2023-01-13T18:16:07.045Z,2.63
2023-01-13T18:18:35.264Z,3.13
2023-01-13T18:21:20.671Z,3.08
2023-01-13T18:24:05.735Z,3.30
2023-01-13T18:26:51.103Z,2.90
2023-01-13T18:29:18.778Z,3.70
2023-01-13T18:31:47.592Z,3.22
2023-01-13T18:34:15.148Z,3.58
2023-01-13T18:36:42.695Z,3.30
2023-01-13T18:39:10.178Z,3.55
2023-01-13T18:41:55.519Z,3.33
2023-01-13T18:44:23.148Z,3.08
2023-01-13T18:46:52.092Z,3.00
2023-01-13T18:49:19.594Z,3.22
2023-01-13T18:51:47.062Z,3.45
2023-01-13T18:54:14.586Z,3.75
2023-01-13T18:56:42.252Z,3.50
2023-01-13T18:59:09.729Z,3.20
2023-01-13T19:01:37.990Z,3.10
2023-01-13T19:04:10.489Z,2.92
2023-01-13T19:06:47.484Z,3.60
2023-01-13T19:09:15.485Z,3.30
2023-01-13T19:11:43.472Z,3.55
2023-01-13T19:14:11.653Z,3.45
2023-01-13T19:16:39.156Z,3.25
2023-01-13T19:19:08.262Z,3.10
2023-01-13T19:21:36.023Z,3.78
2023-01-13T19:24:04.021Z,3.42
2023-01-13T19:26:31.508Z,3.25
2023-01-13T19:28:59.041Z,3.28
2023-01-13T19:31:26.622Z,3.42
2023-01-13T19:33:54.120Z,3.65
2023-01-13T19:36:22.929Z,3.70
2023-01-13T19:38:50.420Z,3.53
2023-01-13T19:41:31.820Z,3.00
2023-01-13T19:44:17.011Z,3.15
2023-01-13T19:46:44.513Z,3.55
2023-01-13T19:49:12.177Z,3.45
2023-01-13T19:51:41.014Z,2.90
2023-01-13T19:54:08.478Z,3.60
2023-01-13T19:56:35.978Z,3.72
2023-01-13T19:59:03.686Z,3.17
2023-01-13T20:01:34.933Z,3.22
2023-01-13T20:04:05.153Z,3.80
2023-01-13T20:06:32.898Z,2.78
2023-01-13T20:09:01.758Z,3.10
2023-01-13T20:11:33.056Z,2.95
2023-01-13T20:14:01.722Z,3.00
2023-01-13T20:16:32.818Z,3.03
2023-01-13T20:19:00.567Z,3.30
2023-01-13T20:21:28.097Z,3.00
2023-01-13T20:23:56.663Z,3.75
2023-01-13T20:26:25.507Z,3.03
2023-01-13T20:28:52.976Z,3.58
2023-01-13T20:31:20.484Z,3.65
2023-01-13T20:33:50.643Z,3.33
2023-01-13T20:36:27.506Z,2.92
2023-01-13T20:38:58.399Z,3.28
2023-01-13T20:41:45.016Z,3.42
2023-01-13T20:44:13.386Z,3.17
2023-01-13T20:46:41.800Z,2.67
2023-01-13T20:49:12.063Z,2.95
2023-01-13T20:51:40.000Z,3.33
2023-01-13T20:54:08.991Z,3.78
2023-01-13T20:56:37.966Z,3.40
2023-01-13T20:59:05.514Z,3.15
2023-01-13T21:01:33.583Z,3.03
2023-01-13T21:04:01.957Z,3.00
2023-01-13T21:06:30.263Z,3.28
2023-01-13T21:08:57.776Z,3.13
2023-01-13T21:11:45.277Z,3.20
2023-01-13T21:14:34.253Z,3.17
2023-01-13T21:17:02.495Z,3.55
2023-01-13T21:19:29.011Z,3.30
2023-01-13T21:21:57.132Z,3.50
2023-01-13T21:24:25.152Z,3.90
2023-01-13T21:26:55.353Z,4.10
2023-01-13T21:29:24.234Z,3.58
2023-01-13T21:31:51.871Z,3.85
2023-01-13T21:34:19.445Z,3.75
2023-01-13T21:36:46.939Z,3.53
2023-01-13T21:39:15.901Z,3.40
2023-01-13T21:42:01.322Z,4.25
2023-01-13T21:44:48.583Z,4.22
2023-01-13T21:47:34.957Z,2.88
2023-01-13T21:50:03.157Z,3.42
2023-01-13T21:52:30.712Z,3.85
2023-01-13T21:55:16.031Z,4.10
2023-01-13T21:57:45.970Z,3.20
2023-01-13T22:00:16.166Z,4.50
2023-01-13T22:02:43.865Z,3.85
2023-01-13T22:05:13.382Z,4.15
2023-01-13T22:07:41.904Z,4.50
2023-01-13T22:10:12.433Z,3.42
2023-01-13T22:12:40.479Z,3.17
2023-01-13T22:15:09.694Z,3.22
2023-01-13T22:17:38.576Z,3.97
2023-01-13T22:20:07.258Z,3.03
2023-01-13T22:22:36.982Z,3.92
2023-01-13T22:25:06.877Z,3.60
2023-01-13T22:27:39.348Z,3.30
2023-01-13T22:30:08.858Z,3.92
2023-01-13T22:32:39.312Z,4.07
2023-01-13T22:35:08.105Z,4.00
2023-01-13T22:37:36.176Z,3.97
2023-01-13T22:40:04.261Z,4.25
2023-01-13T22:42:32.003Z,3.40
2023-01-13T22:44:59.468Z,3.70
2023-01-13T22:47:26.923Z,3.90
2023-01-13T22:49:55.732Z,3.70
2023-01-13T22:52:23.383Z,3.58
2023-01-13T22:54:50.865Z,3.50
2023-01-13T22:57:18.887Z,3.40
2023-01-13T22:59:46.401Z,4.57
2023-01-13T23:02:13.994Z,4.20
2023-01-13T23:04:41.495Z,4.82
2023-01-13T23:07:10.341Z,3.72
2023-01-13T23:09:37.865Z,4.25
2023-01-13T23:12:05.854Z,4.50
2023-01-13T23:14:33.620Z,4.38
2023-01-13T23:17:01.172Z,4.18
2023-01-13T23:19:28.698Z,4.30
2023-01-13T23:21:56.171Z,4.00
2023-01-13T23:24:27.758Z,4.05
2023-01-13T23:26:55.294Z,4.75
2023-01-13T23:29:22.783Z,4.00
2023-01-13T23:31:50.286Z,4.32
2023-01-13T23:34:17.785Z,4.18
2023-01-13T23:36:45.424Z,4.10
2023-01-13T23:39:12.913Z,4.43
2023-01-13T23:41:41.770Z,4.43
2023-01-13T23:44:10.064Z,4.45
2023-01-13T23:46:37.712Z,3.60
2023-01-13T23:49:05.861Z,3.60
2023-01-13T23:51:33.527Z,3.65
2023-01-13T23:54:01.268Z,4.80
2023-01-13T23:56:30.566Z,4.00
2023-01-13T23:58:59.918Z,3.67
